Terminal Aerodrome Forecast
Issued by NWS Charleston, WV

Current Version | Previous Version | Text Only | Print | Product List | Glossary Off
Versions: 1 2 3 4 5 6 7 8 9 10 11 12 13 14 15 16 17 18 19 20 21 22 23 24 25 26 27 28 29 30 31

000
FTUS41 KRLX 172300 RRA
TAFBKW
TAF
KBKW 172346Z 1800/1824 24009G14KT P6SM BKN050
     FM180800 29009G14KT P6SM BKN030
     FM181400 30010G17KT P6SM BKN020
     FM181800 30015G26KT P6SM BKN015
     FM182000 30017G29KT P6SM BKN010=

USA.gov is the U.S. government's official web portal to all federal, state and local government web resources and services.